createdAt,value
2023-07-03T00:01:06.888Z,22.16
2023-07-03T00:04:17.363Z,22.17
2023-07-03T00:07:24.072Z,22.28
2023-07-03T00:10:30.245Z,22.13
2023-07-03T00:13:36.858Z,21.85
2023-07-03T00:16:42.358Z,21.78
2023-07-03T00:19:42.112Z,21.64
2023-07-03T00:22:28.565Z,21.57
2023-07-03T00:25:20.784Z,21.58
2023-07-03T00:28:13.717Z,21.48
2023-07-03T00:31:19.888Z,21.34
2023-07-03T00:34:26.576Z,21.43
2023-07-03T00:37:35.058Z,21.46
2023-07-03T00:40:41.315Z,21.41
2023-07-03T00:43:48.708Z,21.37
2023-07-03T00:46:57.197Z,21.48
2023-07-03T00:50:05.067Z,21.36
2023-07-03T00:53:18.218Z,21.64
2023-07-03T00:56:24.906Z,21.43
2023-07-03T00:59:30.448Z,21.50
2023-07-03T01:02:55.096Z,21.72
2023-07-03T01:06:03.653Z,21.65
2023-07-03T01:09:12.633Z,21.53
2023-07-03T01:12:19.581Z,21.57
2023-07-03T01:15:27.323Z,21.59
2023-07-03T01:18:33.103Z,21.40
2023-07-03T01:21:45.296Z,21.22
2023-07-03T01:25:03.541Z,21.21
2023-07-03T01:28:11.009Z,21.09
2023-07-03T01:31:09.960Z,21.16
2023-07-03T01:34:08.602Z,21.32
2023-07-03T01:37:14.720Z,21.28
2023-07-03T01:40:23.987Z,21.22
2023-07-03T01:43:29.120Z,21.05
2023-07-03T01:46:36.536Z,21.17
2023-07-03T01:49:42.653Z,21.15
2023-07-03T01:52:58.963Z,21.21
2023-07-03T01:56:12.479Z,20.51
2023-07-03T01:59:25.838Z,20.42
2023-07-03T02:02:33.487Z,20.57
2023-07-03T02:05:41.595Z,20.70
2023-07-03T02:08:48.119Z,21.41
2023-07-03T02:11:54.819Z,21.41
2023-07-03T02:15:01.656Z,21.84
2023-07-03T02:18:07.124Z,22.11
2023-07-03T02:21:16.567Z,22.61
2023-07-03T02:24:21.794Z,22.76
2023-07-03T02:27:27.988Z,23.19
2023-07-03T02:30:34.613Z,23.50
2023-07-03T02:33:40.816Z,23.98
2023-07-03T02:36:52.759Z,24.32
2023-07-03T02:40:00.440Z,24.51
2023-07-03T02:43:08.902Z,23.85
2023-07-03T02:46:21.165Z,23.59
2023-07-03T02:49:27.494Z,23.32
2023-07-03T02:52:33.630Z,23.40
2023-07-03T02:55:39.831Z,23.40
2023-07-03T02:58:46.492Z,23.54
2023-07-03T03:01:56.079Z,23.81
2023-07-03T03:05:01.930Z,24.29
2023-07-03T03:08:09.671Z,24.90
2023-07-03T03:11:15.189Z,25.60
2023-07-03T03:14:22.280Z,26.03
2023-07-03T03:17:29.002Z,26.30
2023-07-03T03:20:35.007Z,26.71
2023-07-03T03:23:40.603Z,26.61
2023-07-03T03:26:40.164Z,26.73
2023-07-03T03:29:38.555Z,26.82
2023-07-03T03:32:44.758Z,26.82
2023-07-03T03:35:50.618Z,26.81
2023-07-03T03:38:56.084Z,27.03
2023-07-03T03:42:02.539Z,26.99
2023-07-03T03:45:08.098Z,27.05
2023-07-03T03:48:13.617Z,27.20
2023-07-03T03:51:12.275Z,27.42
2023-07-03T03:54:05.137Z,27.80
2023-07-03T03:57:04.638Z,28.03
2023-07-03T04:00:11.690Z,28.37
2023-07-03T04:03:19.649Z,28.80
2023-07-03T04:06:26.220Z,28.81
2023-07-03T04:09:32.315Z,28.97
2023-07-03T04:12:36.995Z,29.13
2023-07-03T04:15:45.439Z,29.12
2023-07-03T04:18:51.807Z,29.17
2023-07-03T04:21:56.583Z,29.41
2023-07-03T04:25:02.704Z,29.61
2023-07-03T04:28:08.514Z,29.47
2023-07-03T04:31:14.679Z,29.60
2023-07-03T04:34:20.053Z,29.58
2023-07-03T04:37:25.482Z,29.39
2023-07-03T04:40:31.942Z,29.75
2023-07-03T04:43:37.818Z,29.74
2023-07-03T04:46:46.307Z,30.18
2023-07-03T04:49:44.806Z,30.11
2023-07-03T04:52:31.067Z,30.14
2023-07-03T04:55:24.697Z,30.56
2023-07-03T04:58:11.414Z,30.50
2023-07-03T05:01:03.278Z,29.72
2023-07-03T05:03:49.257Z,29.95
2023-07-03T05:06:41.483Z,30.42
2023-07-03T05:09:27.323Z,30.59
2023-07-03T05:12:20.405Z,30.43
2023-07-03T05:15:07.550Z,30.80
2023-07-03T05:18:03.223Z,31.04
2023-07-03T05:20:48.587Z,30.94
2023-07-03T05:23:41.531Z,31.14
2023-07-03T05:26:35.240Z,31.14
2023-07-03T05:29:40.845Z,31.24
2023-07-03T05:32:46.279Z,31.24
2023-07-03T05:35:54.544Z,31.51
2023-07-03T05:38:58.776Z,31.35
2023-07-03T05:42:04.590Z,31.51
2023-07-03T05:45:10.073Z,31.79
2023-07-03T05:48:15.267Z,31.95
2023-07-03T05:51:20.989Z,32.28
2023-07-03T05:54:28.933Z,32.39
2023-07-03T05:57:34.167Z,32.21
2023-07-03T06:00:42.175Z,32.31
2023-07-03T06:03:50.725Z,32.28
2023-07-03T06:06:56.754Z,31.91
2023-07-03T06:13:01.007Z,32.14
2023-07-03T06:16:06.394Z,32.15
2023-07-03T06:19:11.651Z,32.30
2023-07-03T06:22:18.598Z,32.39
2023-07-03T06:25:24.802Z,32.41
2023-07-03T06:28:31.467Z,32.48
2023-07-03T06:31:37.244Z,32.91
2023-07-03T06:34:43.288Z,32.80
2023-07-03T06:37:49.265Z,32.94
2023-07-03T06:40:54.144Z,33.03
2023-07-03T06:44:00.237Z,33.21
2023-07-03T06:47:06.366Z,33.28
2023-07-03T06:50:12.458Z,33.46
2023-07-03T06:53:18.461Z,33.36
2023-07-03T06:56:23.620Z,33.51
2023-07-03T06:59:30.202Z,33.52
2023-07-03T07:02:34.972Z,33.57
2023-07-03T07:05:42.882Z,33.78
2023-07-03T07:08:49.207Z,32.79
2023-07-03T07:11:56.597Z,32.72
2023-07-03T07:15:02.436Z,32.96
2023-07-03T07:18:08.460Z,33.08
2023-07-03T07:21:15.491Z,33.33
2023-07-03T07:24:38.578Z,33.08
2023-07-03T07:27:43.356Z,33.00
2023-07-03T07:30:52.803Z,33.19
2023-07-03T07:33:59.935Z,33.12
2023-07-03T07:37:05.602Z,33.15
2023-07-03T07:40:11.313Z,33.09
2023-07-03T07:43:17.800Z,33.04
2023-07-03T07:46:23.314Z,32.96
2023-07-03T07:49:29.264Z,33.25
2023-07-03T07:52:37.193Z,33.27
2023-07-03T07:55:42.649Z,33.44
2023-07-03T07:58:49.164Z,33.45
2023-07-03T08:01:57.558Z,33.55
2023-07-03T08:05:03.524Z,33.62
2023-07-03T08:08:08.812Z,33.85
2023-07-03T08:11:20.681Z,33.65
2023-07-03T08:14:27.521Z,33.69
2023-07-03T08:17:33.012Z,33.75
2023-07-03T08:20:38.535Z,33.93
2023-07-03T08:23:45.606Z,33.88
2023-07-03T08:26:53.044Z,34.12
2023-07-03T08:30:00.373Z,34.15
2023-07-03T08:33:06.870Z,33.97
2023-07-03T08:39:21.833Z,34.21
2023-07-03T08:42:39.425Z,34.33
2023-07-03T08:45:58.160Z,34.34
2023-07-03T08:49:04.206Z,34.31
2023-07-03T08:52:11.116Z,34.52
2023-07-03T08:55:16.830Z,34.62
2023-07-03T08:58:25.398Z,34.52
2023-07-03T09:01:46.976Z,34.29
2023-07-03T09:05:38.808Z,34.29
2023-07-03T09:08:50.299Z,34.19
2023-07-03T09:11:54.693Z,33.99
2023-07-03T09:14:51.865Z,34.03
2023-07-03T09:17:58.296Z,34.26
2023-07-03T09:21:04.938Z,34.16
2023-07-03T09:24:28.861Z,34.02
2023-07-03T09:27:40.392Z,33.70
2023-07-03T09:30:45.335Z,33.56
2023-07-03T09:33:51.596Z,33.56
2023-07-03T09:37:00.009Z,33.48
2023-07-03T09:40:12.481Z,33.57
2023-07-03T09:43:18.143Z,33.61
2023-07-03T09:46:28.940Z,33.65
2023-07-03T09:49:40.543Z,33.81
2023-07-03T09:52:59.350Z,33.89
2023-07-03T09:55:53.995Z,33.99
2023-07-03T09:59:03.185Z,34.14
2023-07-03T10:08:33.728Z,34.37
2023-07-03T10:11:46.145Z,34.52
2023-07-03T10:15:08.104Z,34.61
2023-07-03T10:18:29.485Z,34.61
2023-07-03T10:21:36.317Z,34.66
2023-07-03T10:24:43.840Z,34.73
2023-07-03T10:27:51.845Z,34.82
2023-07-03T10:30:58.166Z,34.86
2023-07-03T10:34:06.698Z,34.94
2023-07-03T10:37:15.558Z,34.85
2023-07-03T10:40:25.738Z,35.03
2023-07-03T10:43:30.465Z,35.16
2023-07-03T10:46:44.250Z,35.06
2023-07-03T10:49:50.958Z,35.01
2023-07-03T10:53:17.520Z,35.12
2023-07-03T10:56:36.693Z,35.08
2023-07-03T10:59:47.880Z,35.03
2023-07-03T11:03:12.677Z,35.17
2023-07-03T11:06:27.661Z,35.32
2023-07-03T11:09:43.968Z,35.34
2023-07-03T11:13:04.980Z,35.38
2023-07-03T11:16:26.213Z,35.33
2023-07-03T11:20:17.183Z,35.40
2023-07-03T11:23:43.142Z,35.52
2023-07-03T11:30:15.238Z,35.66
2023-07-03T11:33:21.784Z,35.84
2023-07-03T11:40:01.136Z,35.85
2023-07-03T11:43:26.543Z,35.81
2023-07-03T11:46:38.014Z,35.92
2023-07-03T11:49:48.810Z,35.92
2023-07-03T11:52:54.572Z,35.88
2023-07-03T11:55:59.098Z,35.74
2023-07-03T11:59:06.043Z,35.75
2023-07-03T12:02:34.979Z,35.58
2023-07-03T12:06:00.174Z,35.48
2023-07-03T12:09:06.697Z,35.51
2023-07-03T12:12:21.225Z,35.39
2023-07-03T12:15:28.260Z,35.34
2023-07-03T12:18:34.114Z,35.43
2023-07-03T12:21:39.570Z,35.52
2023-07-03T12:24:47.177Z,35.49
2023-07-03T12:27:54.074Z,35.44
2023-07-03T12:30:59.154Z,35.61
2023-07-03T12:34:14.663Z,35.63
2023-07-03T12:37:24.272Z,35.94
2023-07-03T12:40:31.849Z,36.02
2023-07-03T12:43:39.191Z,36.14
2023-07-03T12:46:50.461Z,35.94
2023-07-03T12:50:08.211Z,36.16
2023-07-03T12:53:15.768Z,36.12
2023-07-03T12:56:23.180Z,36.31
2023-07-03T12:59:34.676Z,34.52
2023-07-03T13:02:44.205Z,33.74
2023-07-03T13:05:51.180Z,33.70
2023-07-03T13:09:02.786Z,33.68
2023-07-03T13:12:11.825Z,33.78
2023-07-03T13:15:39.623Z,33.76
2023-07-03T13:18:44.924Z,33.65
2023-07-03T13:21:51.697Z,33.65
2023-07-03T13:25:01.275Z,33.54
2023-07-03T13:28:07.467Z,33.76
2023-07-03T13:31:38.121Z,34.48
2023-07-03T13:34:37.081Z,34.51
2023-07-03T13:37:51.304Z,34.47
2023-07-03T13:40:58.013Z,34.52
2023-07-03T13:44:07.756Z,34.53
2023-07-03T13:47:12.054Z,34.65
2023-07-03T13:50:20.217Z,34.54
2023-07-03T13:53:27.143Z,34.68
2023-07-03T13:56:27.094Z,34.58
2023-07-03T13:59:13.692Z,34.81
2023-07-03T14:02:06.501Z,34.76
2023-07-03T14:04:52.275Z,34.71
2023-07-03T14:07:45.544Z,34.50
2023-07-03T14:10:37.994Z,34.52
2023-07-03T14:13:43.922Z,34.46
2023-07-03T14:16:49.742Z,34.55
2023-07-03T14:19:58.202Z,34.54
2023-07-03T14:23:05.871Z,34.42
2023-07-03T14:26:12.364Z,34.48
2023-07-03T14:29:17.641Z,34.54
2023-07-03T14:32:27.238Z,34.66
2023-07-03T14:35:31.790Z,34.64
2023-07-03T14:38:38.380Z,34.37
2023-07-03T14:41:44.123Z,34.06
2023-07-03T14:44:49.383Z,34.04
2023-07-03T14:47:55.889Z,34.13
2023-07-03T14:51:05.935Z,34.02
2023-07-03T14:54:11.921Z,34.15
2023-07-03T14:57:17.394Z,34.08
2023-07-03T15:00:24.886Z,34.10
2023-07-03T15:03:31.731Z,34.14
2023-07-03T15:06:38.914Z,34.31
2023-07-03T15:09:44.121Z,34.31
2023-07-03T15:12:49.315Z,34.47
2023-07-03T15:16:02.209Z,34.48
2023-07-03T15:19:08.208Z,34.59
2023-07-03T15:22:14.038Z,34.49
2023-07-03T15:25:19.767Z,34.43
2023-07-03T15:28:26.256Z,34.51
2023-07-03T15:31:26.160Z,34.48
2023-07-03T15:34:17.848Z,34.25
2023-07-03T15:37:22.813Z,34.10
2023-07-03T15:40:28.366Z,34.08
2023-07-03T15:43:33.667Z,33.91
2023-07-03T15:46:40.402Z,33.43
2023-07-03T15:49:46.583Z,32.02
2023-07-03T15:52:52.628Z,31.56
2023-07-03T15:56:03.022Z,31.59
2023-07-03T15:59:10.287Z,31.48
2023-07-03T16:02:15.287Z,31.50
2023-07-03T16:05:20.179Z,31.45
2023-07-03T16:08:26.488Z,31.30
2023-07-03T16:11:33.589Z,31.01
2023-07-03T16:14:39.748Z,30.62
2023-07-03T16:17:46.729Z,30.51
2023-07-03T16:20:55.259Z,30.69
2023-07-03T16:24:04.384Z,30.80
2023-07-03T16:27:11.424Z,30.85
2023-07-03T16:30:17.769Z,30.85
2023-07-03T16:33:22.880Z,30.67
2023-07-03T16:36:33.243Z,30.61
2023-07-03T16:39:38.799Z,30.45
2023-07-03T16:42:44.727Z,30.53
2023-07-03T16:45:51.580Z,30.50
2023-07-03T16:48:59.232Z,30.57
2023-07-03T16:52:07.362Z,29.48
2023-07-03T16:55:15.080Z,29.58
2023-07-03T16:58:21.332Z,28.95
2023-07-03T17:01:37.010Z,29.13
2023-07-03T17:04:44.092Z,28.67
2023-07-03T17:07:49.696Z,28.70
2023-07-03T17:10:49.317Z,28.59
2023-07-03T17:13:55.735Z,28.49
2023-07-03T17:17:03.352Z,28.65
2023-07-03T17:20:09.285Z,28.73
2023-07-03T17:23:14.856Z,28.74
2023-07-03T17:26:20.909Z,28.61
2023-07-03T17:29:27.316Z,28.67
2023-07-03T17:32:38.776Z,28.49
2023-07-03T17:35:46.988Z,28.55
2023-07-03T17:38:53.627Z,28.33
2023-07-03T17:42:00.705Z,28.10
2023-07-03T17:45:06.957Z,28.05
2023-07-03T17:48:12.498Z,27.81
2023-07-03T17:51:19.020Z,27.72
2023-07-03T17:54:26.362Z,27.65
2023-07-03T17:57:31.611Z,27.52
2023-07-03T18:00:38.308Z,27.46
2023-07-03T18:03:44.916Z,27.41
2023-07-03T18:06:50.242Z,27.39
2023-07-03T18:09:56.378Z,27.36
2023-07-03T18:13:03.130Z,27.12
2023-07-03T18:16:09.084Z,27.11
2023-07-03T18:19:15.223Z,27.10
2023-07-03T18:22:21.086Z,26.92
2023-07-03T18:25:26.722Z,26.96
2023-07-03T18:28:32.279Z,26.96
2023-07-03T18:31:38.222Z,26.88
2023-07-03T18:34:44.043Z,26.95
2023-07-03T18:37:50.811Z,26.91
2023-07-03T18:40:57.943Z,26.89
2023-07-03T18:44:03.590Z,26.96
2023-07-03T18:47:11.168Z,26.94
2023-07-03T18:50:10.977Z,26.72
2023-07-03T18:53:17.158Z,26.65
2023-07-03T18:56:28.668Z,26.72
2023-07-03T18:59:35.455Z,26.83
2023-07-03T19:02:41.069Z,26.46
2023-07-03T19:05:45.882Z,26.62
2023-07-03T19:08:52.704Z,26.51
2023-07-03T19:11:59.654Z,26.39
2023-07-03T19:15:04.688Z,26.49
2023-07-03T19:18:11.215Z,26.50
2023-07-03T19:21:17.331Z,26.30
2023-07-03T19:24:22.541Z,26.29
2023-07-03T19:27:28.609Z,26.27
2023-07-03T19:30:33.576Z,26.31
2023-07-03T19:33:38.804Z,26.32
2023-07-03T19:36:45.101Z,26.32
2023-07-03T19:39:51.706Z,26.49
2023-07-03T19:42:58.068Z,26.34
2023-07-03T19:46:04.031Z,26.29
2023-07-03T19:49:10.967Z,26.45
2023-07-03T19:52:18.409Z,26.27
2023-07-03T19:55:24.396Z,26.55
2023-07-03T19:58:30.018Z,26.23
2023-07-03T20:01:28.871Z,26.15
2023-07-03T20:04:35.315Z,26.05
2023-07-03T20:07:43.242Z,26.12
2023-07-03T20:10:52.756Z,26.08
2023-07-03T20:13:58.308Z,26.04
2023-07-03T20:17:04.564Z,25.94
2023-07-03T20:20:12.074Z,25.98
2023-07-03T20:23:17.024Z,25.39
2023-07-03T20:26:22.394Z,25.53
2023-07-03T20:29:28.898Z,25.54
2023-07-03T20:32:35.079Z,25.38
2023-07-03T20:35:41.134Z,25.25
2023-07-03T20:38:46.544Z,24.79
2023-07-03T20:41:52.836Z,24.97
2023-07-03T20:44:58.443Z,24.81
2023-07-03T20:48:05.085Z,24.67
2023-07-03T20:51:12.534Z,24.81
2023-07-03T20:54:22.058Z,24.60
2023-07-03T20:57:26.932Z,24.08
2023-07-03T21:00:33.457Z,24.20
2023-07-03T21:03:42.202Z,24.60
2023-07-03T21:06:50.591Z,24.58
2023-07-03T21:09:58.129Z,24.54
2023-07-03T21:13:12.355Z,24.68
2023-07-03T21:16:18.996Z,24.74
2023-07-03T21:19:26.916Z,24.81
2023-07-03T21:22:32.672Z,24.54
2023-07-03T21:25:32.410Z,24.59
2023-07-03T21:28:19.529Z,24.50
2023-07-03T21:31:12.514Z,24.52
2023-07-03T21:33:58.691Z,24.50
2023-07-03T21:36:51.224Z,24.52
2023-07-03T21:39:43.864Z,24.66
2023-07-03T21:42:49.754Z,24.43
2023-07-03T21:45:55.420Z,24.23
2023-07-03T21:49:01.256Z,24.46
2023-07-03T21:52:08.792Z,24.70
2023-07-03T21:55:15.428Z,24.54
2023-07-03T21:58:20.953Z,24.31
2023-07-03T22:01:41.828Z,24.20
2023-07-03T22:04:47.502Z,23.79
2023-07-03T22:07:53.743Z,23.83
2023-07-03T22:11:04.126Z,23.61
2023-07-03T22:14:10.658Z,23.62
2023-07-03T22:17:08.480Z,23.87
2023-07-03T22:20:01.595Z,23.81
2023-07-03T22:23:07.605Z,23.76
2023-07-03T22:26:15.475Z,23.59
2023-07-03T22:29:21.269Z,23.61
2023-07-03T22:32:30.328Z,23.53
2023-07-03T22:35:35.897Z,23.45
2023-07-03T22:38:42.270Z,23.46
2023-07-03T22:41:47.975Z,23.27
2023-07-03T22:44:53.233Z,23.30
2023-07-03T22:47:59.798Z,23.21
2023-07-03T22:51:09.953Z,23.24
2023-07-03T22:54:08.448Z,23.11
2023-07-03T22:57:13.584Z,22.97
2023-07-03T23:00:21.910Z,22.70
2023-07-03T23:03:28.006Z,22.94
2023-07-03T23:06:34.092Z,23.18
2023-07-03T23:09:43.228Z,23.13
2023-07-03T23:12:48.567Z,23.09
2023-07-03T23:15:54.331Z,23.20
2023-07-03T23:19:01.525Z,22.89
2023-07-03T23:22:07.303Z,22.91
2023-07-03T23:25:13.114Z,22.86
2023-07-03T23:28:19.015Z,22.47
2023-07-03T23:31:27.988Z,22.78
2023-07-03T23:34:34.447Z,22.58
2023-07-03T23:37:41.026Z,22.87
2023-07-03T23:40:47.625Z,22.88
2023-07-03T23:43:57.719Z,22.94
2023-07-03T23:47:03.762Z,22.82
2023-07-03T23:50:10.823Z,22.89
2023-07-03T23:53:16.688Z,22.96
2023-07-03T23:56:17.150Z,22.96
2023-07-03T23:59:22.178Z,23.18
